createdAt,value
2023-01-17T05:14:51.566Z,97886.25
2023-01-17T05:17:55.372Z,97890.56
2023-01-17T05:21:04.967Z,97887.75
2023-01-17T05:24:07.841Z,97882.97
2023-01-17T05:27:11.618Z,97889.44
2023-01-17T05:30:14.728Z,97879.88
2023-01-17T05:33:17.232Z,97888.41
2023-01-17T05:36:21.225Z,97889.06
2023-01-17T05:39:24.195Z,97890.56
2023-01-17T05:42:27.139Z,97890.28
2023-01-17T05:45:31.327Z,97889.87
2023-01-17T05:48:34.263Z,97899.25
2023-01-17T05:51:37.999Z,97902.91
2023-01-17T05:54:40.873Z,97908.81
2023-01-17T05:57:43.435Z,97920.16
2023-01-17T06:00:46.762Z,97920.59
2023-01-17T06:03:49.775Z,97932.03
2023-01-17T06:06:52.349Z,97927.34
2023-01-17T06:09:55.300Z,97924.81
2023-01-17T06:13:12.690Z,97934.00
2023-01-17T06:16:15.571Z,97944.97
2023-01-17T06:19:18.371Z,97942.75
2023-01-17T06:22:21.169Z,97938.97
2023-01-17T06:25:23.937Z,97943.09
2023-01-17T06:28:26.817Z,97945.44
2023-01-17T06:31:29.529Z,97951.06
2023-01-17T06:34:32.369Z,97944.59
2023-01-17T06:37:34.965Z,97949.94
2023-01-17T06:40:37.774Z,97949.66
2023-01-17T06:43:40.254Z,97957.53
2023-01-17T06:46:43.484Z,97969.72
2023-01-17T06:49:46.466Z,97976.72
2023-01-17T06:53:03.221Z,97996.13
2023-01-17T06:56:06.543Z,98005.13
2023-01-17T06:59:09.383Z,98010.44
2023-01-17T07:02:11.917Z,98017.97
2023-01-17T07:05:16.371Z,98018.63
2023-01-17T07:08:20.005Z,98021.91
2023-01-17T07:11:23.394Z,98030.91
2023-01-17T07:14:26.011Z,98033.31
2023-01-17T07:17:28.832Z,98043.16
2023-01-17T07:20:32.242Z,98045.22
2023-01-17T07:23:35.184Z,98051.69
2023-01-17T07:26:40.190Z,98059.28
2023-01-17T07:29:43.051Z,98055.34
2023-01-17T07:32:52.315Z,98058.53
2023-01-17T07:35:55.184Z,98060.59
2023-01-17T07:38:57.695Z,98068.69
2023-01-17T07:42:00.856Z,98065.69
2023-01-17T07:45:04.124Z,98077.28
2023-01-17T07:48:07.019Z,98094.31
2023-01-17T07:51:09.856Z,98104.91
2023-01-17T07:54:12.872Z,98114.91
2023-01-17T07:57:15.437Z,98119.97
2023-01-17T08:00:18.832Z,98126.34
2023-01-17T08:03:21.757Z,98135.00
2023-01-17T08:06:25.964Z,98127.34
2023-01-17T08:09:28.930Z,98136.53
2023-01-17T08:12:31.587Z,98140.09
2023-01-17T08:15:34.608Z,98141.13
2023-01-17T08:18:37.539Z,98145.03
2023-01-17T08:21:41.660Z,98162.38
2023-01-17T08:24:44.714Z,98161.84
2023-01-17T08:27:47.559Z,98166.69
2023-01-17T08:30:50.056Z,98170.81
2023-01-17T08:37:30.973Z,98176.56
2023-01-17T08:40:33.877Z,98185.19
2023-01-17T08:43:36.351Z,98192.44
2023-01-17T08:46:40.065Z,98192.66
2023-01-17T08:50:03.078Z,98197.75
2023-01-17T08:56:53.061Z,98185.59
2023-01-17T09:11:10.851Z,98188.84
2023-01-17T09:14:14.303Z,98184.12
2023-01-17T09:17:17.186Z,98195.88
2023-01-17T09:20:20.033Z,98205.34
2023-01-17T09:23:23.265Z,98207.91
2023-01-17T09:26:29.149Z,98202.16
2023-01-17T09:29:32.020Z,98212.28
2023-01-17T09:32:34.915Z,98212.09
2023-01-17T09:35:37.937Z,98208.31
2023-01-17T09:38:41.002Z,98218.56
2023-01-17T09:42:07.571Z,98225.94
2023-01-17T09:45:18.254Z,98230.94
2023-01-17T09:48:31.756Z,98227.25
2023-01-17T09:51:36.615Z,98233.63
2023-01-17T09:54:42.068Z,98237.44
2023-01-17T09:58:03.190Z,98241.25
2023-01-17T10:01:18.112Z,98254.06
2023-01-17T10:04:55.701Z,98245.28
2023-01-17T10:08:16.390Z,98256.37
2023-01-17T10:11:34.813Z,98253.31
2023-01-17T10:15:03.168Z,98268.03
2023-01-17T10:18:30.518Z,98270.59
2023-01-17T10:22:37.556Z,98259.91
2023-01-17T10:25:48.069Z,98260.09
2023-01-17T10:28:53.032Z,98271.22
2023-01-17T10:32:01.097Z,98270.41
2023-01-17T10:35:16.223Z,98261.75
2023-01-17T10:38:22.077Z,98256.28
2023-01-17T10:41:39.767Z,98247.25
2023-01-17T10:45:04.141Z,98244.56
2023-01-17T10:48:28.596Z,98240.34
2023-01-17T10:51:49.935Z,98233.56
2023-01-17T10:55:39.989Z,98240.03
2023-01-17T10:58:42.975Z,98230.91
2023-01-17T11:01:45.869Z,98231.94
2023-01-17T11:04:54.373Z,98216.72
2023-01-17T11:08:26.205Z,98209.66
2023-01-17T11:11:32.925Z,98210.19
2023-01-17T11:14:36.110Z,98205.72
2023-01-17T11:17:53.192Z,98191.09
2023-01-17T11:21:20.866Z,98185.88
2023-01-17T11:24:37.277Z,98191.00
2023-01-17T11:27:41.002Z,98196.09
2023-01-17T11:30:52.771Z,98189.06
2023-01-17T11:34:32.084Z,98182.56
2023-01-17T11:37:35.774Z,98182.91
2023-01-17T11:40:42.411Z,98177.81
2023-01-17T11:43:57.328Z,98162.84
2023-01-17T11:47:12.160Z,98153.03
2023-01-17T11:50:24.914Z,98148.78
2023-01-17T11:53:34.623Z,98152.16
2023-01-17T11:56:37.911Z,98164.28
2023-01-17T11:59:44.500Z,98154.53
2023-01-17T12:03:39.524Z,98154.44
2023-01-17T12:06:57.611Z,98184.63
2023-01-17T12:10:13.127Z,98204.41
2023-01-17T12:14:00.664Z,98197.00
2023-01-17T12:17:45.578Z,98195.06
2023-01-17T12:21:10.063Z,98198.91
2023-01-17T12:24:21.776Z,98199.88
2023-01-17T12:27:34.760Z,98195.91
2023-01-17T12:30:40.303Z,98189.13
2023-01-17T12:34:11.515Z,98187.69
2023-01-17T12:37:37.132Z,98195.16
2023-01-17T12:41:09.030Z,98187.41
2023-01-17T12:44:16.120Z,98187.03
2023-01-17T12:47:20.965Z,98191.91
2023-01-17T12:50:32.519Z,98191.19
2023-01-17T12:53:47.773Z,98190.25
2023-01-17T12:57:04.903Z,98194.94
2023-01-17T13:00:10.733Z,98183.66
2023-01-17T13:03:42.572Z,98188.16
2023-01-17T13:07:00.813Z,98190.03
2023-01-17T13:10:31.815Z,98182.47
2023-01-17T13:13:36.113Z,98184.25
2023-01-17T13:16:57.982Z,98179.06
2023-01-17T13:20:14.254Z,98181.31
2023-01-17T13:23:29.276Z,98182.47
2023-01-17T13:26:40.293Z,98175.84
2023-01-17T13:29:57.974Z,98181.13
2023-01-17T13:33:18.541Z,98193.41
2023-01-17T13:36:59.810Z,98203.59
2023-01-17T13:40:18.180Z,98199.72
2023-01-17T13:43:34.458Z,98191.19
2023-01-17T13:47:04.281Z,98193.56
2023-01-17T13:57:30.431Z,98174.44
2023-01-17T14:00:36.051Z,98173.47
2023-01-17T14:03:51.138Z,98161.69
2023-01-17T14:06:56.671Z,98153.66
2023-01-17T14:09:59.520Z,98137.00
2023-01-17T14:13:04.171Z,98131.44
2023-01-17T14:16:22.407Z,98123.22
2023-01-17T14:19:27.189Z,98117.13
2023-01-17T14:22:35.263Z,98106.66
2023-01-17T14:25:41.468Z,98100.03
2023-01-17T14:28:44.404Z,98097.63
2023-01-17T14:31:49.234Z,98098.47
2023-01-17T14:34:57.218Z,98099.81
2023-01-17T14:38:03.029Z,98079.56
2023-01-17T14:41:13.933Z,98077.88
2023-01-17T14:44:17.272Z,98066.16
2023-01-17T14:47:20.307Z,98054.94
2023-01-17T14:50:30.381Z,98062.84
2023-01-17T14:53:33.956Z,98061.03
2023-01-17T14:56:36.603Z,98067.78
2023-01-17T14:59:39.542Z,98049.47
2023-01-17T15:02:44.135Z,98054.38
2023-01-17T15:05:50.330Z,98051.88
2023-01-17T15:08:56.084Z,98049.34
2023-01-17T15:11:59.551Z,98041.44
2023-01-17T15:15:02.178Z,98037.22
2023-01-17T15:18:15.106Z,98045.22
2023-01-17T15:21:21.160Z,98056.28
2023-01-17T15:24:29.508Z,98057.72
2023-01-17T15:27:32.511Z,98050.69
2023-01-17T15:30:35.506Z,98048.06
2023-01-17T15:33:41.447Z,98043.31
2023-01-17T15:36:48.892Z,98040.69
2023-01-17T15:39:51.790Z,98046.03
2023-01-17T15:42:58.671Z,98034.06
2023-01-17T15:46:04.994Z,98030.47
2023-01-17T15:49:16.631Z,98016.56
2023-01-17T15:52:21.522Z,98020.72
2023-01-17T15:55:36.044Z,98017.63
2023-01-17T15:58:38.535Z,98008.81
2023-01-17T16:01:44.339Z,98010.78
2023-01-17T16:04:47.186Z,98006.41
2023-01-17T16:07:52.871Z,97997.88
2023-01-17T16:11:02.032Z,98001.63
2023-01-17T16:14:07.569Z,97986.09
2023-01-17T16:17:17.798Z,97984.72
2023-01-17T16:20:23.543Z,97991.34
2023-01-17T16:23:27.120Z,97984.19
2023-01-17T16:26:29.828Z,97995.44
2023-01-17T16:29:32.675Z,97993.75
2023-01-17T16:32:35.378Z,97990.16
2023-01-17T16:35:40.040Z,97975.31
2023-01-17T16:38:48.725Z,97970.19
2023-01-17T16:41:51.639Z,97969.12
2023-01-17T16:44:54.173Z,97965.47
2023-01-17T16:47:57.039Z,97964.38
2023-01-17T16:50:59.661Z,97961.75
2023-01-17T16:54:02.549Z,97962.69
2023-01-17T16:57:05.084Z,97950.37
2023-01-17T17:00:10.929Z,97948.66
